• Join FlightAware (Why Join?)
  • Login
  • US Flag 
09:16AM EDT


 

Airport Tracker/Info


-or-


 

Live Flight TrackerFlight Track Log ✈ ASH3770 ✈ 03-May-2013 ✈ KIAD - KPIT

Flight Track Log - Related Links

Times and Time Zones

All times are in EDT time to prevent confusion due to time zone crossing. See the ASH3770 flight status page for this flight to view local times or setup timezone preferences in your user account.

Time Position Orientation Groundspeed Altitude Reporting Facility
EDT Latitude Longitude Course Direction KTS MPH feet Rate Location/Type
05:35PM 38.9333 -77.5000 290° West 210 242 2,500  Level Potomac TRACON
05:36PM 38.9667 -77.5667 303° West 258 297 4,900 2,580 Climbing Potomac TRACON
05:37PM 39.2208 -77.5219 349° North  Level FlightAware Approximate
05:38PM 39.3190 -77.5529 344° North  Level FlightAware Approximate
05:38PM 39.1656 -77.5942 354° North 299 344 11,500  Level Washington Center
05:39PM 39.4169 -77.5833 North  Level FlightAware Approximate
05:39PM 39.2572 -77.6019 356° North 313 360 13,000  Level Washington Center
05:40PM 39.4737 -77.6661 290° West  Level FlightAware Approximate
05:40PM 39.3633 -77.6103 357° North 346 398 14,400  Level Washington Center
05:41PM 39.4472 -77.7039 319° Northwest 363 418 16,500 1,800 Climbing Washington Center
05:43PM 39.5678 -77.9519 302° West 399 459 19,900 1,140 Climbing Cleveland Center
05:44PM 39.6106 -78.0986 291° West 406 467 20,000  Climbing Cleveland Center
05:45PM 39.6533 -78.2428 291° West 426 490 20,000  Level Cleveland Center
05:46PM 39.6978 -78.3894 292° West 431 496 20,000  Level Cleveland Center
05:47PM 39.7403 -78.5339 291° West 431 496 20,000 -240 Level Cleveland Center
05:48PM 39.7756 -78.6492 292° West 431 496 19,600 -1,020 Descending Cleveland Center
05:49PM 39.8200 -78.8261 288° West 431 496 18,000 -1,620 Descending Cleveland Center
05:50PM 39.8619 -78.9658 291° West 425 489 16,400 -1,560 Descending Cleveland Center
05:51PM 39.9011 -79.0892 293° West 425 489 14,900 -1,560 Descending Cleveland Center
05:52PM 39.9403 -79.2267 290° West 415 478 13,300 -1,620 Descending Cleveland Center
05:53PM 39.9814 -79.3611 292° West 415 478 11,700 -1,620 Descending Cleveland Center
05:54PM 40.0472 -79.4739 307° West 398 458 10,100 -900 Descending Cleveland Center
05:55PM 40.1128 -79.5786 309° West 388 447 10,000 -60 Descending Cleveland Center
05:56PM 40.1783 -79.6836 309° West 383 441 10,000  Level Cleveland Center
05:57PM 40.2292 -79.8081 298° West 378 435 10,000 -60 Level Cleveland Center
05:58PM 40.2822 -79.9300 300° West 389 448 9,900 -600 Descending Cleveland Center
05:59PM 40.3244 -80.0358 298° West 320 368 8,800 -1,500 Descending Cleveland Center
06:00PM 40.3664 -80.1281 301° West 299 344 7,000 -1,440 Descending Cleveland Center
06:01PM 40.3917 -80.2233 289° West 299 344 6,000 -1,140 Descending Cleveland Center
06:02PM 40.3858 -80.3078 265° West 260 299 4,800 -1,200 Descending Cleveland Center
06:04PM 40.4833 -80.2167 303° West  Level FlightAware Approximate
06:11PM 40.4915 -80.2329 303° West  Level Estimated
06:12PM 40.4915 -80.2329 303° West  Level Estimated
06:13PM 40.4915 -80.2329 303° West  Level Estimated